Gordon Reid — CGBR — position and weather

sailwx.info

Track history (hours):
 
Tides and Currents Weather Stations Pressure Air Temp Water Temp Dewpoint Dewpoint Depression Visibility Wind Speed Wind Dir Waves Ship Positions

Gordon Reid

Last reported at 2017-Jan-23 16:14 UTC. Time now 2017-Jan-23 16:58 UTC.
Position N 48°39' W 123°27'.

Length 49.95 m; beam 11 m; draft 5.4 m.

Type: SAR. MMSI: 316094000.

Date/timePositionNaut miles runAvg speedWind from/ knotsBaromVisibWave heightAir tempDewpointWater temp
2017-Jan-23 16:14N 48°39' W 123°27'313.9
2017-Jan-23 16:00N 48°42' W 123°30'1 1.8 230 / 21008.9 3.6 3.6 6.3
2017-Jan-23 15:34N 48°41' W 123°30'4 7.2
2017-Jan-23 15:00N 48°42' W 123°24'510.5 360 / 31007.9 5.1 5.0 7.9
2017-Jan-23 14:33N 48°44' W 123°18'5 8.4
2017-Jan-23 14:00N 48°42' W 123°12'715.3 320 / 41007.0 6.2 6.1 8.0
2017-Jan-23 13:33N 48°46' W 123°04'3 4.6
2017-Jan-23 13:00N 48°48' W 123°06'715.1 360 / 41006.5 5.7 5.6 7.8
2017-Jan-23 12:33N 48°54' W 123°10'5 9.6
2017-Jan-23 12:00N 48°54' W 123°18'920.5 300 / 11006.1 5.4 5.3 8.2
2017-Jan-23 11:33N 49°02' W 123°23'610.2
2017-Jan-23 11:00N 49°06' W 123°30'613.0 260 / 71005.4 5.1 5.0 6.3
2017-Jan-23 10:33N 49°10' W 123°36'4 7.8
2017-Jan-23 10:00N 49°12' W 123°42'717.0 230 / 81004.9 5.9 5.9 7.4
2017-Jan-23 09:34N 49°16' W 123°52'610.4
2017-Jan-23 09:00N 49°18' W 124°00'614.5 180 / 21004.3 6.3 6.3 7.7
2017-Jan-23 08:34N 49°21' W 124°08'712.3
2017-Jan-23 08:00N 49°24' W 124°18'511.3 200 / 111004.0 6.8 6.8 8.5
2017-Jan-23 07:34N 49°27' W 124°24'5 8.7
2017-Jan-23 07:00N 49°30' W 124°30'716.3 200 / 81003.9 6.9 6.8 8.3
2017-Jan-23 06:34N 49°36' W 124°37'712.9
2017-Jan-23 06:00N 49°42' W 124°42'613.1 230 / 71003.6 6.8 6.8 7.8
2017-Jan-23 05:33N 49°45' W 124°50'4 7.5
2017-Jan-23 05:00N 49°48' W 124°54'818.2 210 / 81003.2 6.6 6.5 8.5
2017-Jan-23 04:33N 49°54' W 125°03'610.4
2017-Jan-23 04:00N 49°54' W 125°12'920.8 200 / 81002.5 6.5 6.5 8.2
2017-Jan-23 03:33N 50°03' W 125°14'712.1
2017-Jan-23 03:00N 50°06' W 125°24'612.7 230 / 11002.2 6.5 6.4 8.6
2017-Jan-23 02:33N 50°11' W 125°22'711.9
2017-Jan-23 02:00N 50°18' W 125°24'1 3.2 110 / 91001.9 5.9 5.9 8.3
2017-Jan-23 01:33N 50°19' W 125°25'610.2
2017-Jan-23 01:00N 50°24' W 125°30'1111.5 190 / 81001.4 5.5 5.5 8.3
2017-Jan-23 00:00N 50°24' W 125°48'4 3.8 120 / 171000.2 6.1 6.1 8.3
2017-Jan-22 23:00N 50°24' W 125°54'1312.9 150 / 16999.1 6.2 6.2 8.2
2017-Jan-22 22:00N 50°30' W 126°12'1111.4 130 / 22997.8 7.1 7.0 8.2
2017-Jan-22 21:00N 50°30' W 126°30'1111.4 100 / 31995.5 7.6 7.5 8.2
2017-Jan-22 20:00N 50°30' W 126°48'610.7 160 / 26995.2 7.8 7.6 8.3
2017-Jan-22 19:25N 50°34' W 126°55'4 8.5
2017-Jan-22 19:00N 50°36' W 127°00'610.6 130 / 20995.0 7.7 7.6 8.0
2017-Jan-22 18:25N 50°37' W 127°09'511.9
2017-Jan-22 18:00N 50°42' W 127°12'510.6 120 / 23993.6 7.9 7.8 8.0
2017-Jan-22 17:33N 50°43' W 127°19'610.7
2017-Jan-22 17:00N 50°48' W 127°24'512.5 120 / 23994.3 8.4 8.2 8.1
2017-Jan-22 16:33N 50°44' W 127°29'2 2.9
2017-Jan-22 16:00N 50°42' W 127°30'0 0.0 120 / 15994.1 7.9 7.7
2017-Jan-22 15:00N 50°42' W 127°30'0 0.0 110 / 16994.9 7.6 7.4
2017-Jan-22 14:00N 50°42' W 127°30'0 0.0 120 / 13995.6 7.5 7.4
2017-Jan-22 13:00N 50°42' W 127°30'0 0.0 120 / 17996.1 7.5 7.4
2017-Jan-22 12:00N 50°42' W 127°30'0 0.0 130 / 11996.8 7.4 7.3
2017-Jan-22 11:00N 50°42' W 127°30'0 0.0 120 / 11997.5 7.4 7.3
2017-Jan-22 10:00N 50°42' W 127°30'0 0.0 120 / 12997.3 7.5 7.4
2017-Jan-22 09:00N 50°42' W 127°30'0 0.0 130 / 14997.4 7.6 7.5
2017-Jan-22 08:00N 50°42' W 127°30'0 0.0 130 / 14997.2 7.5 7.4
2017-Jan-22 07:00N 50°42' W 127°30'0 0.0 130 / 13996.8 7.4 7.3
2017-Jan-22 06:00N 50°42' W 127°30'0 0.0 120 / 14996.3 7.4 7.3
2017-Jan-22 05:00N 50°42' W 127°30'0 0.0 130 / 15996.2 7.4 7.4
2017-Jan-22 04:00N 50°42' W 127°30'0 0.0 120 / 16995.5 7.4 7.3
2017-Jan-22 03:00N 50°42' W 127°30'0 0.0 130 / 15994.8 7.4 7.3 8.1
2017-Jan-22 02:00N 50°42' W 127°30'2 1.9 120 / 14994.4 7.4 7.3 8.2
2017-Jan-22 01:07N 50°43' W 127°29'213.4
2017-Jan-22 01:00N 50°42' W 127°30'512.3 090 / 12993.2 7.5 7.4 8.2
2017-Jan-22 00:33N 50°47' W 127°31'712.0
2017-Jan-22 00:00N 50°48' W 127°42'612.4 150 / 24992.9 7.9 7.7 8.3
2017-Jan-21 23:33N 50°51' W 127°49'4 7.4
2017-Jan-21 23:00N 50°54' W 127°54'1111.4 140 / 29991.9 7.9 7.8 8.4
2017-Jan-21 22:00N 50°54' W 128°12'7 7.1 120 / 7991.9 8.7 8.6 8.7
2017-Jan-21 21:00N 50°48' W 128°18'0 0.0 080 / 2992.1 8.1 8.0
2017-Jan-21 20:00N 50°48' W 128°18'0 0.0 330 / 1991.9 7.2 7.1
2017-Jan-21 19:00N 50°48' W 128°18'0 0.0 210 / 2991.4 6.7 6.6
2017-Jan-21 18:00N 50°48' W 128°18'0 0.0 150 / 2990.6 6.2 6.2
2017-Jan-21 17:00N 50°48' W 128°18'0 0.0 180 / 4990.1 6.1 6.0
2017-Jan-21 16:00N 50°48' W 128°18'0 0.0 170 / 3989.4 5.6 5.5
2017-Jan-21 15:00N 50°48' W 128°18'0 0.0 130 / 2989.0 6.3 6.3
2017-Jan-21 14:00N 50°48' W 128°18'0 0.0 190 / 1988.7 5.3 5.3
2017-Jan-21 13:00N 50°48' W 128°18'0 0.0 180 / 2988.5 5.4 5.3
2017-Jan-21 12:00N 50°48' W 128°18'0 0.0 090 / 3988.7 6.7 6.6
2017-Jan-21 11:00N 50°48' W 128°18'0 0.0 090 / 3988.5 6.9 6.8
2017-Jan-21 10:00N 50°48' W 128°18'0 0.0 030 / 3988.1 7.1 7.0
2017-Jan-21 09:00N 50°48' W 128°18'0 0.0 200 / 2987.9 6.0 5.9
2017-Jan-21 08:00N 50°48' W 128°18'0 0.0 170 / 2987.5 6.1 6.1
2017-Jan-21 07:00N 50°48' W 128°18'0 0.0 160 / 1987.2 4.8 4.8
2017-Jan-21 06:00N 50°48' W 128°18'0 0.0 080 / 5987.0 4.6 4.6
2017-Jan-21 05:00N 50°48' W 128°18'0 0.0 140 / 1986.7 5.2 5.1
2017-Jan-21 04:00N 50°48' W 128°18'0 0.0 100 / 4986.5 6.6 6.5
2017-Jan-21 03:00N 50°48' W 128°18'0 0.0 080 / 8986.3 6.9 6.9
2017-Jan-21 02:00N 50°48' W 128°18'0 0.0 060 / 11986.2 8.0 7.9
2017-Jan-21 01:00N 50°48' W 128°18'0 0.0 040 / 14986.3 7.7 7.6
2017-Jan-21 00:00N 50°48' W 128°18'0 0.0 040 / 15986.6 8.0 7.9 8.6
2017-Jan-20 23:00N 50°48' W 128°18'0 0.0 050 / 20986.3 8.1 8.0 8.7
2017-Jan-20 22:00N 50°48' W 128°18'10 9.7 040 / 12986.9 9.1 9.0 8.6
2017-Jan-20 21:00N 50°54' W 128°06'1414.2 050 / 11988.0 8.1 8.0 8.5
2017-Jan-20 20:00N 51°06' W 127°54'510.7 030 / 10988.9 7.6 7.5 8.4
2017-Jan-20 19:33N 51°11' W 127°54'713.1
2017-Jan-20 19:00N 51°18' W 127°54'1312.6 050 / 9989.5 6.3 6.2 7.8
2017-Jan-20 18:00N 51°30' W 127°48'7 7.1 060 / 6989.6 5.5 5.5 7.8
2017-Jan-20 17:00N 51°36' W 127°54'10 9.6 320 / 4989.9 4.9 4.9 7.6
2017-Jan-20 16:00N 51°42' W 128°06'0 0.0 020 / 3990.0 4.9 4.9
2017-Jan-20 15:00N 51°42' W 128°06'0 0.0 020 / 3990.1 5.0 5.0
2017-Jan-20 14:00N 51°42' W 128°06'0 0.0 360 / 3990.5 5.1 5.1
2017-Jan-20 13:00N 51°42' W 128°06'0 0.0 080 / 5990.7 5.6 5.5
2017-Jan-20 12:00N 51°42' W 128°06'0 0.0 130 / 2991.1 6.2 6.2
2017-Jan-20 11:00N 51°42' W 128°06'0 0.0 140 / 3991.6 6.5 6.4
2017-Jan-20 10:00N 51°42' W 128°06'0 0.0 200 / 3991.7 5.9 5.9
2017-Jan-20 09:00N 51°42' W 128°06'0 0.0 170 / 2991.9 5.7 5.7
2017-Jan-20 08:00N 51°42' W 128°06'0 0.0 140 / 5992.1 5.7 5.7
2017-Jan-20 06:00N 51°42' W 128°06'0 0.0 130 / 7992.3 5.4 5.4
2017-Jan-20 05:00N 51°42' W 128°06'0 0.0 120 / 7992.6 5.3 5.3
2017-Jan-20 04:00N 51°42' W 128°06'0 0.0 150 / 2992.8 5.0 5.0
2017-Jan-20 03:00N 51°42' W 128°06'0 0.0 120 / 2992.9 5.2 5.2
2017-Jan-20 02:00N 51°42' W 128°06'0 0.0 190 / 3993.1 5.6 5.6
2017-Jan-20 01:00N 51°42' W 128°06'0 0.0 100 / 3992.8 6.6 6.5
2017-Jan-20 00:00N 51°42' W 128°06'0 0.0 070 / 1992.8 6.4 6.4
2017-Jan-19 23:00N 51°42' W 128°06'0 0.0 150 / 2992.7 5.6 5.6
2017-Jan-19 22:00N 51°42' W 128°06'3 5.4 160 / 8992.7 6.4 6.4
2017-Jan-19 21:27N 51°39' W 128°05'3 6.5
2017-Jan-19 21:00N 51°42' W 128°06'3 6.6 170 / 7992.9 5.8 5.7
2017-Jan-19 20:33N 51°39' W 128°05'3 5.3
2017-Jan-19 20:00N 51°42' W 128°06'3 6.6 150 / 8993.0 6.2 6.1
2017-Jan-19 19:33N 51°39' W 128°05'3 5.3
2017-Jan-19 19:00N 51°42' W 128°06'3 6.6 120 / 3992.9 6.0 6.0
2017-Jan-19 18:33N 51°39' W 128°05'3 5.3
2017-Jan-19 18:00N 51°42' W 128°06'3 6.6 180 / 5992.2 5.9 5.9
2017-Jan-19 17:33N 51°39' W 128°05'3 5.4
2017-Jan-19 17:00N 51°42' W 128°06'3 6.6 160 / 5991.7 5.5 5.5
2017-Jan-19 16:33N 51°39' W 128°05'3 5.4
2017-Jan-19 16:00N 51°42' W 128°06'3 6.6 160 / 7990.8 6.0 6.0
2017-Jan-19 15:33N 51°39' W 128°05'3 5.3
2017-Jan-19 15:00N 51°42' W 128°06'3 6.6 180 / 5989.9 6.6 6.6
2017-Jan-19 14:33N 51°39' W 128°05'3 5.3
2017-Jan-19 14:00N 51°42' W 128°06'3 6.6 180 / 8988.8 6.9 6.9
2017-Jan-19 13:33N 51°39' W 128°05'3 5.3
2017-Jan-19 13:00N 51°42' W 128°06'3 6.6 200 / 11987.3 7.2 7.2
2017-Jan-19 12:33N 51°39' W 128°05'3 5.4
2017-Jan-19 12:00N 51°42' W 128°06'3 6.5 180 / 16985.4 6.6 6.6
2017-Jan-19 11:33N 51°39' W 128°05'3 5.3
2017-Jan-19 11:00N 51°42' W 128°06'3 6.6 160 / 21984.1 6.7 6.7
2017-Jan-19 10:33N 51°39' W 128°05'3 5.3
2017-Jan-19 10:00N 51°42' W 128°06'3 6.6 160 / 23983.3 7.4 7.4
2017-Jan-19 09:33N 51°39' W 128°05'3 5.3
2017-Jan-19 09:00N 51°42' W 128°06'3 6.6 160 / 15982.8 9.1 8.9
2017-Jan-19 08:33N 51°39' W 128°05'3 5.3
2017-Jan-19 08:00N 51°42' W 128°06'3 6.6 150 / 11982.3 11.010.1
2017-Jan-19 07:33N 51°39' W 128°05'3 5.3
2017-Jan-19 07:00N 51°42' W 128°06'3 6.6 160 / 14982.5 11.3 9.7
2017-Jan-19 06:33N 51°39' W 128°05'3 5.3
2017-Jan-19 06:00N 51°42' W 128°06'3 6.6 170 / 15981.7 12.0 9.8
2017-Jan-19 05:33N 51°39' W 128°05'3 5.3
2017-Jan-19 05:00N 51°42' W 128°06'3 6.6 160 / 12981.5 11.6 9.9
2017-Jan-19 04:33N 51°39' W 128°05'3 5.3
2017-Jan-19 04:00N 51°42' W 128°06'3 6.6 160 / 14981.4 11.610.5
2017-Jan-19 03:33N 51°39' W 128°05'3 5.3
2017-Jan-19 03:00N 51°42' W 128°06'3 6.6 160 / 15981.1 11.110.9
2017-Jan-19 02:33N 51°39' W 128°05'3 5.3
2017-Jan-19 02:00N 51°42' W 128°06'3 6.6 160 / 14980.7 10.410.3
2017-Jan-19 01:33N 51°39' W 128°05'3 5.3
2017-Jan-19 01:00N 51°42' W 128°06'3 6.6 160 / 18980.0 10.510.5
2017-Jan-19 00:33N 51°39' W 128°05'3 5.3
2017-Jan-19 00:00N 51°42' W 128°06'3 6.6 150 / 17978.9 10.710.6
2017-Jan-18 23:33N 51°39' W 128°05'3 5.3
2017-Jan-18 23:00N 51°42' W 128°06'3 6.8 140 / 11979.0 9.5 9.5
2017-Jan-18 22:33N 51°39' W 128°05'3 5.4
2017-Jan-18 22:00N 51°42' W 128°06'3 6.7 050 / 6978.2 7.7 7.8
2017-Jan-18 21:33N 51°39' W 128°05'3 5.5
2017-Jan-18 21:00N 51°42' W 128°06'3 6.7 360 / 9978.8 7.4 7.4
2017-Jan-18 20:33N 51°39' W 128°05'3 5.5
2017-Jan-18 20:00N 51°42' W 128°06'3 6.7 020 / 7979.7 8.2 8.2 7.9
2017-Jan-18 19:33N 51°39' W 128°05'3 5.4
2017-Jan-18 19:00N 51°42' W 128°06'3 6.7 020 / 4980.2 8.1 8.2 8.0
2017-Jan-18 18:33N 51°39' W 128°05'3 5.4
2017-Jan-18 18:00N 51°42' W 128°06'3 6.6 210 / 3981.2 9.0 9.0 8.1
2017-Jan-18 17:33N 51°39' W 128°04'712.9
2017-Jan-18 17:00N 51°36' W 127°54'2 5.6 110 / 9981.7 8.7 8.7 7.7
2017-Jan-18 16:33N 51°38' W 127°51'2 4.2
2017-Jan-18 16:00N 51°36' W 127°48'2 5.2 190 / 9982.5 9.5 9.4
2017-Jan-18 15:33N 51°38' W 127°51'2 4.2
2017-Jan-18 15:00N 51°36' W 127°48'2 5.3 170 / 14982.4 9.9 9.8
2017-Jan-18 14:33N 51°38' W 127°51'2 4.2
2017-Jan-18 14:00N 51°36' W 127°48'2 5.3 170 / 19981.8 8.9 8.9
2017-Jan-18 13:33N 51°38' W 127°51'2 4.2
2017-Jan-18 13:00N 51°36' W 127°48'2 5.3 160 / 21980.8 8.8 8.9
2017-Jan-18 12:33N 51°38' W 127°51'2 4.2
2017-Jan-18 12:00N 51°36' W 127°48'2 5.3 170 / 24979.6 9.5 9.5
2017-Jan-18 11:33N 51°38' W 127°51'2 4.2
2017-Jan-18 11:00N 51°36' W 127°48'2 4.7 170 / 23979.2 10.110.1
2017-Jan-18 10:30N 51°38' W 127°51'2 4.6
2017-Jan-18 10:00N 51°36' W 127°48'2 5.2 150 / 18978.9 10.510.5
2017-Jan-18 09:33N 51°38' W 127°51'2 4.2
2017-Jan-18 09:00N 51°36' W 127°48'2 5.2 140 / 12979.2 10.210.2
2017-Jan-18 08:33N 51°38' W 127°51'2 4.2
2017-Jan-18 08:00N 51°36' W 127°48'2 5.3 150 / 11979.2 10.610.6
2017-Jan-18 07:33N 51°38' W 127°51'2 4.3
2017-Jan-18 07:00N 51°36' W 127°48'2 5.2 150 / 13979.6 10.610.6
2017-Jan-18 06:33N 51°38' W 127°51'0 0.0
2017-Jan-18 05:33N 51°38' W 127°51'2 4.2
2017-Jan-18 05:00N 51°36' W 127°48'2 5.3 160 / 12978.0 12.112.0
2017-Jan-18 04:33N 51°38' W 127°51'2 4.2
2017-Jan-18 04:00N 51°36' W 127°48'2 4.7 170 / 3978.4 9.8 9.8
2017-Jan-18 03:30N 51°38' W 127°51'2 4.6
2017-Jan-18 03:00N 51°36' W 127°48'2 5.3 130 / 2979.7 10.010.0
2017-Jan-18 02:33N 51°38' W 127°51'2 4.2
2017-Jan-18 02:00N 51°36' W 127°48'2 5.3 160 / 8980.8 11.511.4
2017-Jan-18 01:33N 51°38' W 127°51'2 4.2
2017-Jan-18 01:00N 51°36' W 127°48'2 5.3 140 / 11982.3 11.911.8
2017-Jan-18 00:33N 51°38' W 127°51'2 4.2
2017-Jan-18 00:00N 51°36' W 127°48'2 4.7 140 / 14983.4 12.312.2
2017-Jan-17 23:30N 51°38' W 127°51'2 4.6
2017-Jan-17 23:00N 51°36' W 127°48'2 5.3 140 / 12984.0 12.512.4
2017-Jan-17 22:33N 51°38' W 127°51'2 4.2
2017-Jan-17 22:00N 51°36' W 127°48'2 5.2 160 / 20985.3 12.512.4
2017-Jan-17 21:33N 51°38' W 127°51'2 4.2
2017-Jan-17 21:00N 51°36' W 127°48'2 5.2 160 / 13986.4 12.011.9
2017-Jan-17 20:33N 51°38' W 127°51'2 4.2
2017-Jan-17 20:00N 51°36' W 127°48'2 4.7 150 / 14987.1 11.511.4
2017-Jan-17 19:30N 51°38' W 127°51'2 4.7
2017-Jan-17 19:00N 51°36' W 127°48'2 5.3 150 / 15987.3 11.211.2
2017-Jan-17 18:33N 51°38' W 127°51'2 4.3
2017-Jan-17 18:00N 51°36' W 127°48'2 5.3 160 / 13987.6 11.211.1
2017-Jan-17 17:33N 51°38' W 127°51'2 4.2
2017-Jan-17 17:00N 51°36' W 127°48'2 5.2 140 / 18988.1 11.211.1
2017-Jan-17 16:33N 51°38' W 127°51'2 4.2
2017-Jan-17 16:00N 51°36' W 127°48'2 5.3 170 / 12988.3 11.411.3
2017-Jan-17 15:33N 51°38' W 127°51'2 4.2
2017-Jan-17 15:00N 51°36' W 127°48'2 5.3 160 / 8989.0 10.910.8
2017-Jan-17 14:33N 51°38' W 127°51'2 4.2
2017-Jan-17 14:00N 51°36' W 127°48'2 5.2 160 / 10990.5 9.7 9.7
2017-Jan-17 13:33N 51°38' W 127°51'2 4.2
2017-Jan-17 13:00N 51°36' W 127°48'2 5.2 160 / 14991.5 9.4 9.4
2017-Jan-17 12:33N 51°38' W 127°51'2 4.2
2017-Jan-17 12:00N 51°36' W 127°48'2 5.2 150 / 6992.7 9.2 9.2
2017-Jan-17 11:33N 51°38' W 127°51'2 4.2
2017-Jan-17 11:00N 51°36' W 127°48'2 5.2 130 / 4994.5 8.5 8.5
2017-Jan-17 10:33N 51°38' W 127°51'2 4.2
2017-Jan-17 10:00N 51°36' W 127°48'2 5.3 140 / 11995.5 9.0 9.1
2017-Jan-17 09:33N 51°38' W 127°51'2 4.3
2017-Jan-17 09:00N 51°36' W 127°48'2 5.3 140 / 17996.6 9.0 9.1
2017-Jan-17 08:33N 51°38' W 127°51'2 4.2
2017-Jan-17 08:00N 51°36' W 127°48'2 5.3 150 / 18996.6 9.2 9.3
2017-Jan-17 07:33N 51°38' W 127°51'2 4.2
2017-Jan-17 07:00N 51°36' W 127°48'2 5.3 160 / 14997.7 9.8 9.9
2017-Jan-17 06:33N 51°38' W 127°51'2 4.2
2017-Jan-17 06:00N 51°36' W 127°48'2 5.2 160 / 15997.6 10.410.4
2017-Jan-17 05:33N 51°38' W 127°51'2 4.2
2017-Jan-17 05:00N 51°36' W 127°48'2 5.3 170 / 12997.5 10.910.9
2017-Jan-17 04:33N 51°38' W 127°51'2 4.2
2017-Jan-17 04:00N 51°36' W 127°48'2 5.2 200 / 11997.6 9.1 9.2
2017-Jan-17 03:33N 51°38' W 127°51'2 4.2
2017-Jan-17 03:00N 51°36' W 127°48'2 5.2 200 / 14997.7 9.1 9.2
2017-Jan-17 02:33N 51°38' W 127°51'2 4.2
2017-Jan-17 02:00N 51°36' W 127°48'2 5.2 200 / 16997.9 9.3 9.4
2017-Jan-17 01:33N 51°38' W 127°51'2 4.2
2017-Jan-17 01:00N 51°36' W 127°48'2 5.3 200 / 11997.5 9.4 9.4
2017-Jan-17 00:33N 51°38' W 127°51'2 4.2
2017-Jan-17 00:00N 51°36' W 127°48'2 5.3 190 / 14998.1 8.8 8.9
2017-Jan-16 23:33N 51°38' W 127°51'2 4.2
2017-Jan-16 23:00N 51°36' W 127°48'2 5.3 180 / 12998.1 9.4 9.4
2017-Jan-16 22:33N 51°38' W 127°51'2 4.2
2017-Jan-16 22:00N 51°36' W 127°48'2 5.2 160 / 7999.7 9.1 9.2
2017-Jan-16 21:33N 51°38' W 127°51'2 4.2
2017-Jan-16 21:00N 51°36' W 127°48'2 5.2 170 / 111001.4 8.5 8.5
2017-Jan-16 20:33N 51°38' W 127°51'2 4.2
2017-Jan-16 20:00N 51°36' W 127°48'2 5.3 160 / 151003.5 7.8 7.9 7.4
2017-Jan-16 19:33N 51°38' W 127°51'2 4.2
2017-Jan-16 19:00N 51°36' W 127°48'2 5.2 180 / 121006.9 7.4 7.5 7.5
2017-Jan-16 18:33N 51°38' W 127°51'2 4.2
2017-Jan-16 18:00N 51°36' W 127°48'3 6.0 130 / 51009.2 6.9 6.9 7.7
2017-Jan-16 17:33N 51°38' W 127°51'3 4.5
2017-Jan-16 17:00N 51°36' W 127°54'818.5 180 / 41010.7 7.3 7.3 7.4
2017-Jan-16 16:33N 51°29' W 127°48'610.9
2017-Jan-16 16:00N 51°24' W 127°42'1414.1 070 / 111011.7 8.7 8.7 8.4
2017-Jan-16 15:00N 51°36' W 127°30'1 1.8 010 / 121013.4 9.9 9.9 8.6
2017-Jan-16 14:18N 51°36' W 127°32'1 3.9
2017-Jan-16 14:00N 51°36' W 127°30'0 0.0 010 / 111013.4 8.4 8.4 8.6
2017-Jan-16 13:00N 51°36' W 127°30'2 2.7 020 / 91013.9 10.110.1 8.6
2017-Jan-16 12:24N 51°37' W 127°32'2 4.1
2017-Jan-16 12:00N 51°36' W 127°30'0 0.0 060 / 161014.5 7.7 7.8 8.5
2017-Jan-16 11:00N 51°36' W 127°30'7 7.1 340 / 111015.6 6.8 6.9
2017-Jan-16 10:00N 51°30' W 127°36'7 8.0 010 / 111016.7 6.8 6.9 8.4
2017-Jan-16 09:03N 51°37' W 127°32'223.6
2017-Jan-16 09:00N 51°36' W 127°30'0 0.0 070 / 121017.2 6.6 6.7 8.6
2017-Jan-16 08:00N 51°36' W 127°30'7 7.1 360 / 151017.4 7.0 7.1 8.5
2017-Jan-16 07:00N 51°30' W 127°36'0 0.0 360 / 41018.0 6.8 6.9 8.2
2017-Jan-16 06:00N 51°30' W 127°36'7 7.1 120 / 101017.8 10.110.0 8.4
2017-Jan-16 05:00N 51°24' W 127°42'4 3.7 150 / 181017.9 11.010.9 8.3
2017-Jan-16 04:00N 51°24' W 127°48'0 0.0 140 / 151018.4 10.310.2
2017-Jan-16 03:00N 51°24' W 127°48'0 0.0 150 / 131018.9 9.9 9.8
2017-Jan-16 02:00N 51°24' W 127°48'0 0.0 210 / 61019.4 8.7 8.7
2017-Jan-16 01:00N 51°24' W 127°48'0 0.0 110 / 11019.1 7.7 7.8 8.1
2017-Jan-16 00:00N 51°24' W 127°48'0 0.0 150 / 31020.7 8.1 8.1 8.1
2017-Jan-15 23:00N 51°24' W 127°48'0 0.0 150 / 61021.3 8.6 8.6 8.2
2017-Jan-15 22:00N 51°24' W 127°48'714.3 110 / 61021.9 7.4 7.4 7.4
2017-Jan-15 21:32N 51°30' W 127°50'611.2
2017-Jan-15 21:00N 51°36' W 127°54'4 9.3 180 / 161021.7 7.3 7.3 7.7
2017-Jan-15 20:34N 51°39' W 127°58'4 7.1
2017-Jan-15 20:00N 51°42' W 127°54'510.7 160 / 141022.4 6.9 6.9 7.2
2017-Jan-15 19:34N 51°46' W 127°57'813.9
2017-Jan-15 19:00N 51°54' W 127°54'3 7.1 190 / 131022.2 6.9 7.0 7.0
2017-Jan-15 18:32N 51°57' W 127°57'3 6.5
2017-Jan-15 18:00N 52°00' W 127°54'10 9.5 150 / 31022.0 6.1 6.2 7.4
2017-Jan-15 17:00N 52°06' W 128°06'7 7.0 150 / 101021.5 6.8 6.9 7.6
2017-Jan-15 16:00N 52°12' W 128°12'9 9.5 200 / 121021.4 6.2 6.3 7.3
2017-Jan-15 15:00N 52°18' W 128°24'7 7.0 190 / 131021.0 5.7 5.8 7.1
2017-Jan-15 14:00N 52°24' W 128°30'1212.0 170 / 231020.7 5.8 5.9 7.2
2017-Jan-15 13:00N 52°36' W 128°30'7 7.0 180 / 211020.8 5.6 5.8 7.4
2017-Jan-15 12:00N 52°42' W 128°36'7 7.0 150 / 121020.7 5.2 5.3 7.8
2017-Jan-15 11:00N 52°48' W 128°30'6 6.0 340 / 81021.1 2.4 2.5 7.2
2017-Jan-15 10:00N 52°54' W 128°30'1312.5 180 / 51021.0 2.0 2.1 7.6
2017-Jan-15 09:00N 53°06' W 128°36'9 9.4 170 / 141020.6 3.0 3.1 8.0
2017-Jan-15 08:00N 53°12' W 128°48'7 7.0 180 / 201019.8 3.8 3.9 8.0
2017-Jan-15 07:00N 53°18' W 128°54'7 7.2 140 / 121019.3 5.3 5.3 7.6
2017-Jan-15 06:00N 53°18' W 129°06'9 9.3 170 / 151019.2 4.6 4.7 7.4
2017-Jan-15 05:00N 53°24' W 129°18'0 0.0 320 / 81019.4 1.4 1.5
2017-Jan-15 04:00N 53°24' W 129°18'0 0.0 300 / 61019.5 1.7 1.8
2017-Jan-15 03:00N 53°24' W 129°18'0 0.0 300 / 91019.5 2.2 2.3
2017-Jan-15 02:00N 53°24' W 129°18'0 0.0 010 / 11019.2 3.8 3.9
2017-Jan-15 00:00N 53°24' W 129°18'0 0.0 150 / 121019.1 4.8 4.8
2017-Jan-14 23:00N 53°24' W 129°18'0 0.0 160 / 91019.1 4.9 5.0
2017-Jan-14 22:00N 53°24' W 129°18'0 0.0 170 / 121019.0 4.9 5.0
2017-Jan-14 21:00N 53°24' W 129°18'0 0.0 160 / 111019.7 4.9 5.0
2017-Jan-14 20:00N 53°24' W 129°18'0 0.0 160 / 161020.1 5.3 5.4
2017-Jan-14 19:00N 53°24' W 129°18'0 0.0 170 / 131020.8 5.5 5.6
2017-Jan-14 18:00N 53°24' W 129°18'0 0.0 160 / 121021.1 5.1 5.2
2017-Jan-14 17:00N 53°24' W 129°18'0 0.0 160 / 131020.9 5.3 5.4
2017-Jan-14 16:00N 53°24' W 129°18'0 0.0 160 / 121020.9 5.5 5.5
2017-Jan-14 15:00N 53°24' W 129°18'0 0.0 170 / 121021.2 5.5 5.6
2017-Jan-14 14:00N 53°24' W 129°18'0 0.0 150 / 121021.5 5.4 5.5
2017-Jan-14 13:00N 53°24' W 129°18'0 0.0 170 / 101021.9 5.1 5.2
2017-Jan-14 12:00N 53°24' W 129°18'0 0.0 160 / 81022.2 5.1 5.2
2017-Jan-14 11:00N 53°24' W 129°18'0 0.0 170 / 101022.2 5.2 5.3
2017-Jan-14 10:00N 53°24' W 129°18'0 0.0 160 / 91022.4 4.9 4.9
2017-Jan-14 09:00N 53°24' W 129°18'0 0.0 160 / 71022.2 4.7 4.8
2017-Jan-14 08:00N 53°24' W 129°18'0 0.0 180 / 121022.6 4.8 4.9
2017-Jan-14 07:00N 53°24' W 129°18'0 0.0 160 / 111022.5 4.9 5.0
2017-Jan-14 06:00N 53°24' W 129°18'0 0.0 170 / 101022.8 4.9 4.9
2017-Jan-14 05:00N 53°24' W 129°18'0 0.0 170 / 91022.7 4.7 4.8 7.0
2017-Jan-14 04:00N 53°24' W 129°18'0 0.0 160 / 131022.7 4.5 4.5 7.1
2017-Jan-14 03:00N 53°24' W 129°18'0 0.0 170 / 161022.5 4.9 5.0 7.2
2017-Jan-14 02:00N 53°24' W 129°18'7 7.0 130 / 131022.3 4.9 4.9 7.1
2017-Jan-14 01:00N 53°30' W 129°12'6 6.0 190 / 121021.8 5.0 5.1 6.9
2017-Jan-14 00:00N 53°36' W 129°12'6 6.0 160 / 71022.2 4.0 4.1 7.2
2017-Jan-13 23:00N 53°30' W 129°12'7 7.0 200 / 101022.2 4.3 4.4 6.7
2017-Jan-13 22:00N 53°24' W 129°18'0 0.0 170 / 71022.6 4.3 4.4
2017-Jan-13 21:00N 53°24' W 129°18'0 0.0 160 / 91022.8 4.1 4.2
2017-Jan-13 20:00N 53°24' W 129°18'0 0.0 150 / 71023.1 3.5 3.6 7.3
2017-Jan-13 19:00N 53°24' W 129°18'4 3.6 1023.2 1.4 1.5 7.4
2017-Jan-13 18:00N 53°24' W 129°12'1212.0 010 / 21023.0 1.4 1.5 7.3
2017-Jan-13 17:00N 53°36' W 129°12'   310 / 21022.9 0.4 0.5 7.3
Track history (hours):
 
Tides and Currents Weather Stations Pressure Air Temp Water Temp Dewpoint Dewpoint Depression Visibility Wind Speed Wind Dir Waves Ship Positions

Gordon Reid

Last reported at 2017-Jan-23 16:14 UTC. Time now 2017-Jan-23 16:58 UTC.
Position N 48°39' W 123°27'.

Length 49.95 m; beam 11 m; draft 5.4 m.

Type: SAR. MMSI: 316094000.

Date/timePositionNaut miles runAvg speedWind from/ knotsBaromVisibWave heightAir tempDewpointWater temp
2017-Jan-23 16:14N 48°39' W 123°27'313.9
2017-Jan-23 16:00N 48°42' W 123°30'1 1.8 230 / 21008.9 3.6 3.6 6.3
2017-Jan-23 15:34N 48°41' W 123°30'4 7.2
2017-Jan-23 15:00N 48°42' W 123°24'510.5 360 / 31007.9 5.1 5.0 7.9
2017-Jan-23 14:33N 48°44' W 123°18'5 8.4
2017-Jan-23 14:00N 48°42' W 123°12'715.3 320 / 41007.0 6.2 6.1 8.0
2017-Jan-23 13:33N 48°46' W 123°04'3 4.6
2017-Jan-23 13:00N 48°48' W 123°06'715.1 360 / 41006.5 5.7 5.6 7.8
2017-Jan-23 12:33N 48°54' W 123°10'5 9.6
2017-Jan-23 12:00N 48°54' W 123°18'920.5 300 / 11006.1 5.4 5.3 8.2
2017-Jan-23 11:33N 49°02' W 123°23'610.2
2017-Jan-23 11:00N 49°06' W 123°30'613.0 260 / 71005.4 5.1 5.0 6.3
2017-Jan-23 10:33N 49°10' W 123°36'4 7.8
2017-Jan-23 10:00N 49°12' W 123°42'717.0 230 / 81004.9 5.9 5.9 7.4
2017-Jan-23 09:34N 49°16' W 123°52'610.4
2017-Jan-23 09:00N 49°18' W 124°00'614.5 180 / 21004.3 6.3 6.3 7.7
2017-Jan-23 08:34N 49°21' W 124°08'712.3
2017-Jan-23 08:00N 49°24' W 124°18'511.3 200 / 111004.0 6.8 6.8 8.5
2017-Jan-23 07:34N 49°27' W 124°24'5 8.7
2017-Jan-23 07:00N 49°30' W 124°30'716.3 200 / 81003.9 6.9 6.8 8.3
2017-Jan-23 06:34N 49°36' W 124°37'712.9
2017-Jan-23 06:00N 49°42' W 124°42'613.1 230 / 71003.6 6.8 6.8 7.8
2017-Jan-23 05:33N 49°45' W 124°50'4 7.5
2017-Jan-23 05:00N 49°48' W 124°54'818.2 210 / 81003.2 6.6 6.5 8.5
2017-Jan-23 04:33N 49°54' W 125°03'610.4
2017-Jan-23 04:00N 49°54' W 125°12'920.8 200 / 81002.5 6.5 6.5 8.2
2017-Jan-23 03:33N 50°03' W 125°14'712.1
2017-Jan-23 03:00N 50°06' W 125°24'612.7 230 / 11002.2 6.5 6.4 8.6
2017-Jan-23 02:33N 50°11' W 125°22'711.9
2017-Jan-23 02:00N 50°18' W 125°24'1 3.2 110 / 91001.9 5.9 5.9 8.3
2017-Jan-23 01:33N 50°19' W 125°25'610.2
2017-Jan-23 01:00N 50°24' W 125°30'1111.5 190 / 81001.4 5.5 5.5 8.3
2017-Jan-23 00:00N 50°24' W 125°48'4 3.8 120 / 171000.2 6.1 6.1 8.3
2017-Jan-22 23:00N 50°24' W 125°54'1312.9 150 / 16999.1 6.2 6.2 8.2
2017-Jan-22 22:00N 50°30' W 126°12'1111.4 130 / 22997.8 7.1 7.0 8.2
2017-Jan-22 21:00N 50°30' W 126°30'1111.4 100 / 31995.5 7.6 7.5 8.2
2017-Jan-22 20:00N 50°30' W 126°48'610.7 160 / 26995.2 7.8 7.6 8.3
2017-Jan-22 19:25N 50°34' W 126°55'4 8.5
2017-Jan-22 19:00N 50°36' W 127°00'610.6 130 / 20995.0 7.7 7.6 8.0
2017-Jan-22 18:25N 50°37' W 127°09'511.9
2017-Jan-22 18:00N 50°42' W 127°12'510.6 120 / 23993.6 7.9 7.8 8.0
2017-Jan-22 17:33N 50°43' W 127°19'610.7
2017-Jan-22 17:00N 50°48' W 127°24'512.5 120 / 23994.3 8.4 8.2 8.1
2017-Jan-22 16:33N 50°44' W 127°29'2 2.9
2017-Jan-22 16:00N 50°42' W 127°30'0 0.0 120 / 15994.1 7.9 7.7
2017-Jan-22 15:00N 50°42' W 127°30'0 0.0 110 / 16994.9 7.6 7.4
2017-Jan-22 14:00N 50°42' W 127°30'0 0.0 120 / 13995.6 7.5 7.4
2017-Jan-22 13:00N 50°42' W 127°30'0 0.0 120 / 17996.1 7.5 7.4
2017-Jan-22 12:00N 50°42' W 127°30'0 0.0 130 / 11996.8 7.4 7.3
2017-Jan-22 11:00N 50°42' W 127°30'0 0.0 120 / 11997.5 7.4 7.3
2017-Jan-22 10:00N 50°42' W 127°30'0 0.0 120 / 12997.3 7.5 7.4
2017-Jan-22 09:00N 50°42' W 127°30'0 0.0 130 / 14997.4 7.6 7.5
2017-Jan-22 08:00N 50°42' W 127°30'0 0.0 130 / 14997.2 7.5 7.4
2017-Jan-22 07:00N 50°42' W 127°30'0 0.0 130 / 13996.8 7.4 7.3
2017-Jan-22 06:00N 50°42' W 127°30'0 0.0 120 / 14996.3 7.4 7.3
2017-Jan-22 05:00N 50°42' W 127°30'0 0.0 130 / 15996.2 7.4 7.4
2017-Jan-22 04:00N 50°42' W 127°30'0 0.0 120 / 16995.5 7.4 7.3
2017-Jan-22 03:00N 50°42' W 127°30'0 0.0 130 / 15994.8 7.4 7.3 8.1
2017-Jan-22 02:00N 50°42' W 127°30'2 1.9 120 / 14994.4 7.4 7.3 8.2
2017-Jan-22 01:07N 50°43' W 127°29'213.4
2017-Jan-22 01:00N 50°42' W 127°30'512.3 090 / 12993.2 7.5 7.4 8.2
2017-Jan-22 00:33N 50°47' W 127°31'712.0
2017-Jan-22 00:00N 50°48' W 127°42'612.4 150 / 24992.9 7.9 7.7 8.3
2017-Jan-21 23:33N 50°51' W 127°49'4 7.4
2017-Jan-21 23:00N 50°54' W 127°54'1111.4 140 / 29991.9 7.9 7.8 8.4
2017-Jan-21 22:00N 50°54' W 128°12'7 7.1 120 / 7991.9 8.7 8.6 8.7
2017-Jan-21 21:00N 50°48' W 128°18'0 0.0 080 / 2992.1 8.1 8.0
2017-Jan-21 20:00N 50°48' W 128°18'0 0.0 330 / 1991.9 7.2 7.1
2017-Jan-21 19:00N 50°48' W 128°18'0 0.0 210 / 2991.4 6.7 6.6
2017-Jan-21 18:00N 50°48' W 128°18'0 0.0 150 / 2990.6 6.2 6.2
2017-Jan-21 17:00N 50°48' W 128°18'0 0.0 180 / 4990.1 6.1 6.0
2017-Jan-21 16:00N 50°48' W 128°18'0 0.0 170 / 3989.4 5.6 5.5
2017-Jan-21 15:00N 50°48' W 128°18'0 0.0 130 / 2989.0 6.3 6.3
2017-Jan-21 14:00N 50°48' W 128°18'0 0.0 190 / 1988.7 5.3 5.3
2017-Jan-21 13:00N 50°48' W 128°18'0 0.0 180 / 2988.5 5.4 5.3
2017-Jan-21 12:00N 50°48' W 128°18'0 0.0 090 / 3988.7 6.7 6.6
2017-Jan-21 11:00N 50°48' W 128°18'0 0.0 090 / 3988.5 6.9 6.8
2017-Jan-21 10:00N 50°48' W 128°18'0 0.0 030 / 3988.1 7.1 7.0
2017-Jan-21 09:00N 50°48' W 128°18'0 0.0 200 / 2987.9 6.0 5.9
2017-Jan-21 08:00N 50°48' W 128°18'0 0.0 170 / 2987.5 6.1 6.1
2017-Jan-21 07:00N 50°48' W 128°18'0 0.0 160 / 1987.2 4.8 4.8
2017-Jan-21 06:00N 50°48' W 128°18'0 0.0 080 / 5987.0 4.6 4.6
2017-Jan-21 05:00N 50°48' W 128°18'0 0.0 140 / 1986.7 5.2 5.1
2017-Jan-21 04:00N 50°48' W 128°18'0 0.0 100 / 4986.5 6.6 6.5
2017-Jan-21 03:00N 50°48' W 128°18'0 0.0 080 / 8986.3 6.9 6.9
2017-Jan-21 02:00N 50°48' W 128°18'0 0.0 060 / 11986.2 8.0 7.9
2017-Jan-21 01:00N 50°48' W 128°18'0 0.0 040 / 14986.3 7.7 7.6
2017-Jan-21 00:00N 50°48' W 128°18'0 0.0 040 / 15986.6 8.0 7.9 8.6
2017-Jan-20 23:00N 50°48' W 128°18'0 0.0 050 / 20986.3 8.1 8.0 8.7
2017-Jan-20 22:00N 50°48' W 128°18'10 9.7 040 / 12986.9 9.1 9.0 8.6
2017-Jan-20 21:00N 50°54' W 128°06'1414.2 050 / 11988.0 8.1 8.0 8.5
2017-Jan-20 20:00N 51°06' W 127°54'510.7 030 / 10988.9 7.6 7.5 8.4
2017-Jan-20 19:33N 51°11' W 127°54'713.1
2017-Jan-20 19:00N 51°18' W 127°54'1312.6 050 / 9989.5 6.3 6.2 7.8
2017-Jan-20 18:00N 51°30' W 127°48'7 7.1 060 / 6989.6 5.5 5.5 7.8
2017-Jan-20 17:00N 51°36' W 127°54'10 9.6 320 / 4989.9 4.9 4.9 7.6
2017-Jan-20 16:00N 51°42' W 128°06'0 0.0 020 / 3990.0 4.9 4.9
2017-Jan-20 15:00N 51°42' W 128°06'0 0.0 020 / 3990.1 5.0 5.0
2017-Jan-20 14:00N 51°42' W 128°06'0 0.0 360 / 3990.5 5.1 5.1
2017-Jan-20 13:00N 51°42' W 128°06'0 0.0 080 / 5990.7 5.6 5.5
2017-Jan-20 12:00N 51°42' W 128°06'0 0.0 130 / 2991.1 6.2 6.2
2017-Jan-20 11:00N 51°42' W 128°06'0 0.0 140 / 3991.6 6.5 6.4
2017-Jan-20 10:00N 51°42' W 128°06'0 0.0 200 / 3991.7 5.9 5.9
2017-Jan-20 09:00N 51°42' W 128°06'0 0.0 170 / 2991.9 5.7 5.7
2017-Jan-20 08:00N 51°42' W 128°06'0 0.0 140 / 5992.1 5.7 5.7
2017-Jan-20 06:00N 51°42' W 128°06'0 0.0 130 / 7992.3 5.4 5.4
2017-Jan-20 05:00N 51°42' W 128°06'0 0.0 120 / 7992.6 5.3 5.3
2017-Jan-20 04:00N 51°42' W 128°06'0 0.0 150 / 2992.8 5.0 5.0
2017-Jan-20 03:00N 51°42' W 128°06'0 0.0 120 / 2992.9 5.2 5.2
2017-Jan-20 02:00N 51°42' W 128°06'0 0.0 190 / 3993.1 5.6 5.6
2017-Jan-20 01:00N 51°42' W 128°06'0 0.0 100 / 3992.8 6.6 6.5
2017-Jan-20 00:00N 51°42' W 128°06'0 0.0 070 / 1992.8 6.4 6.4
2017-Jan-19 23:00N 51°42' W 128°06'0 0.0 150 / 2992.7 5.6 5.6
2017-Jan-19 22:00N 51°42' W 128°06'3 5.4 160 / 8992.7 6.4 6.4
2017-Jan-19 21:27N 51°39' W 128°05'3 6.5
2017-Jan-19 21:00N 51°42' W 128°06'3 6.6 170 / 7992.9 5.8 5.7
2017-Jan-19 20:33N 51°39' W 128°05'3 5.3
2017-Jan-19 20:00N 51°42' W 128°06'3 6.6 150 / 8993.0 6.2 6.1
2017-Jan-19 19:33N 51°39' W 128°05'3 5.3
2017-Jan-19 19:00N 51°42' W 128°06'3 6.6 120 / 3992.9 6.0 6.0
2017-Jan-19 18:33N 51°39' W 128°05'3 5.3
2017-Jan-19 18:00N 51°42' W 128°06'3 6.6 180 / 5992.2 5.9 5.9
2017-Jan-19 17:33N 51°39' W 128°05'3 5.4
2017-Jan-19 17:00N 51°42' W 128°06'3 6.6 160 / 5991.7 5.5 5.5
2017-Jan-19 16:33N 51°39' W 128°05'3 5.4
2017-Jan-19 16:00N 51°42' W 128°06'3 6.6 160 / 7990.8 6.0 6.0
2017-Jan-19 15:33N 51°39' W 128°05'3 5.3
2017-Jan-19 15:00N 51°42' W 128°06'3 6.6 180 / 5989.9 6.6 6.6
2017-Jan-19 14:33N 51°39' W 128°05'3 5.3
2017-Jan-19 14:00N 51°42' W 128°06'3 6.6 180 / 8988.8 6.9 6.9
2017-Jan-19 13:33N 51°39' W 128°05'3 5.3
2017-Jan-19 13:00N 51°42' W 128°06'3 6.6 200 / 11987.3 7.2 7.2
2017-Jan-19 12:33N 51°39' W 128°05'3 5.4
2017-Jan-19 12:00N 51°42' W 128°06'3 6.5 180 / 16985.4 6.6 6.6
2017-Jan-19 11:33N 51°39' W 128°05'3 5.3
2017-Jan-19 11:00N 51°42' W 128°06'3 6.6 160 / 21984.1 6.7 6.7
2017-Jan-19 10:33N 51°39' W 128°05'3 5.3
2017-Jan-19 10:00N 51°42' W 128°06'3 6.6 160 / 23983.3 7.4 7.4
2017-Jan-19 09:33N 51°39' W 128°05'3 5.3
2017-Jan-19 09:00N 51°42' W 128°06'3 6.6 160 / 15982.8 9.1 8.9
2017-Jan-19 08:33N 51°39' W 128°05'3 5.3
2017-Jan-19 08:00N 51°42' W 128°06'3 6.6 150 / 11982.3 11.010.1
2017-Jan-19 07:33N 51°39' W 128°05'3 5.3
2017-Jan-19 07:00N 51°42' W 128°06'3 6.6 160 / 14982.5 11.3 9.7
2017-Jan-19 06:33N 51°39' W 128°05'3 5.3
2017-Jan-19 06:00N 51°42' W 128°06'3 6.6 170 / 15981.7 12.0 9.8
2017-Jan-19 05:33N 51°39' W 128°05'3 5.3
2017-Jan-19 05:00N 51°42' W 128°06'3 6.6 160 / 12981.5 11.6 9.9
2017-Jan-19 04:33N 51°39' W 128°05'3 5.3
2017-Jan-19 04:00N 51°42' W 128°06'3 6.6 160 / 14981.4 11.610.5
2017-Jan-19 03:33N 51°39' W 128°05'3 5.3
2017-Jan-19 03:00N 51°42' W 128°06'3 6.6 160 / 15981.1 11.110.9
2017-Jan-19 02:33N 51°39' W 128°05'3 5.3
2017-Jan-19 02:00N 51°42' W 128°06'3 6.6 160 / 14980.7 10.410.3
2017-Jan-19 01:33N 51°39' W 128°05'3 5.3
2017-Jan-19 01:00N 51°42' W 128°06'3 6.6 160 / 18980.0 10.510.5
2017-Jan-19 00:33N 51°39' W 128°05'3 5.3
2017-Jan-19 00:00N 51°42' W 128°06'3 6.6 150 / 17978.9 10.710.6
2017-Jan-18 23:33N 51°39' W 128°05'3 5.3
2017-Jan-18 23:00N 51°42' W 128°06'3 6.8 140 / 11979.0 9.5 9.5
2017-Jan-18 22:33N 51°39' W 128°05'3 5.4
2017-Jan-18 22:00N 51°42' W 128°06'3 6.7 050 / 6978.2 7.7 7.8
2017-Jan-18 21:33N 51°39' W 128°05'3 5.5
2017-Jan-18 21:00N 51°42' W 128°06'3 6.7 360 / 9978.8 7.4 7.4
2017-Jan-18 20:33N 51°39' W 128°05'3 5.5
2017-Jan-18 20:00N 51°42' W 128°06'3 6.7 020 / 7979.7 8.2 8.2 7.9
2017-Jan-18 19:33N 51°39' W 128°05'3 5.4
2017-Jan-18 19:00N 51°42' W 128°06'3 6.7 020 / 4980.2 8.1 8.2 8.0
2017-Jan-18 18:33N 51°39' W 128°05'3 5.4
2017-Jan-18 18:00N 51°42' W 128°06'3 6.6 210 / 3981.2 9.0 9.0 8.1
2017-Jan-18 17:33N 51°39' W 128°04'712.9
2017-Jan-18 17:00N 51°36' W 127°54'2 5.6 110 / 9981.7 8.7 8.7 7.7
2017-Jan-18 16:33N 51°38' W 127°51'2 4.2
2017-Jan-18 16:00N 51°36' W 127°48'2 5.2 190 / 9982.5 9.5 9.4
2017-Jan-18 15:33N 51°38' W 127°51'2 4.2
2017-Jan-18 15:00N 51°36' W 127°48'2 5.3 170 / 14982.4 9.9 9.8
2017-Jan-18 14:33N 51°38' W 127°51'2 4.2
2017-Jan-18 14:00N 51°36' W 127°48'2 5.3 170 / 19981.8 8.9 8.9
2017-Jan-18 13:33N 51°38' W 127°51'2 4.2
2017-Jan-18 13:00N 51°36' W 127°48'2 5.3 160 / 21980.8 8.8 8.9
2017-Jan-18 12:33N 51°38' W 127°51'2 4.2
2017-Jan-18 12:00N 51°36' W 127°48'2 5.3 170 / 24979.6 9.5 9.5
2017-Jan-18 11:33N 51°38' W 127°51'2 4.2
2017-Jan-18 11:00N 51°36' W 127°48'2 4.7 170 / 23979.2 10.110.1
2017-Jan-18 10:30N 51°38' W 127°51'2 4.6
2017-Jan-18 10:00N 51°36' W 127°48'2 5.2 150 / 18978.9 10.510.5
2017-Jan-18 09:33N 51°38' W 127°51'2 4.2
2017-Jan-18 09:00N 51°36' W 127°48'2 5.2 140 / 12979.2 10.210.2
2017-Jan-18 08:33N 51°38' W 127°51'2 4.2
2017-Jan-18 08:00N 51°36' W 127°48'2 5.3 150 / 11979.2 10.610.6
2017-Jan-18 07:33N 51°38' W 127°51'2 4.3
2017-Jan-18 07:00N 51°36' W 127°48'2 5.2 150 / 13979.6 10.610.6
2017-Jan-18 06:33N 51°38' W 127°51'0 0.0
2017-Jan-18 05:33N 51°38' W 127°51'2 4.2
2017-Jan-18 05:00N 51°36' W 127°48'2 5.3 160 / 12978.0 12.112.0
2017-Jan-18 04:33N 51°38' W 127°51'2 4.2
2017-Jan-18 04:00N 51°36' W 127°48'2 4.7 170 / 3978.4 9.8 9.8
2017-Jan-18 03:30N 51°38' W 127°51'2 4.6
2017-Jan-18 03:00N 51°36' W 127°48'2 5.3 130 / 2979.7 10.010.0
2017-Jan-18 02:33N 51°38' W 127°51'2 4.2
2017-Jan-18 02:00N 51°36' W 127°48'2 5.3 160 / 8980.8 11.511.4
2017-Jan-18 01:33N 51°38' W 127°51'2 4.2
2017-Jan-18 01:00N 51°36' W 127°48'2 5.3 140 / 11982.3 11.911.8
2017-Jan-18 00:33N 51°38' W 127°51'2 4.2
2017-Jan-18 00:00N 51°36' W 127°48'2 4.7 140 / 14983.4 12.312.2
2017-Jan-17 23:30N 51°38' W 127°51'2 4.6
2017-Jan-17 23:00N 51°36' W 127°48'2 5.3 140 / 12984.0 12.512.4
2017-Jan-17 22:33N 51°38' W 127°51'2 4.2
2017-Jan-17 22:00N 51°36' W 127°48'2 5.2 160 / 20985.3 12.512.4
2017-Jan-17 21:33N 51°38' W 127°51'2 4.2
2017-Jan-17 21:00N 51°36' W 127°48'2 5.2 160 / 13986.4 12.011.9
2017-Jan-17 20:33N 51°38' W 127°51'2 4.2
2017-Jan-17 20:00N 51°36' W 127°48'2 4.7 150 / 14987.1 11.511.4
2017-Jan-17 19:30N 51°38' W 127°51'2 4.7
2017-Jan-17 19:00N 51°36' W 127°48'2 5.3 150 / 15987.3 11.211.2
2017-Jan-17 18:33N 51°38' W 127°51'2 4.3
2017-Jan-17 18:00N 51°36' W 127°48'2 5.3 160 / 13987.6 11.211.1
2017-Jan-17 17:33N 51°38' W 127°51'2 4.2
2017-Jan-17 17:00N 51°36' W 127°48'2 5.2 140 / 18988.1 11.211.1
2017-Jan-17 16:33N 51°38' W 127°51'2 4.2
2017-Jan-17 16:00N 51°36' W 127°48'2 5.3 170 / 12988.3 11.411.3
2017-Jan-17 15:33N 51°38' W 127°51'2 4.2
2017-Jan-17 15:00N 51°36' W 127°48'2 5.3 160 / 8989.0 10.910.8
2017-Jan-17 14:33N 51°38' W 127°51'2 4.2
2017-Jan-17 14:00N 51°36' W 127°48'2 5.2 160 / 10990.5 9.7 9.7
2017-Jan-17 13:33N 51°38' W 127°51'2 4.2
2017-Jan-17 13:00N 51°36' W 127°48'2 5.2 160 / 14991.5 9.4 9.4
2017-Jan-17 12:33N 51°38' W 127°51'2 4.2
2017-Jan-17 12:00N 51°36' W 127°48'2 5.2 150 / 6992.7 9.2 9.2
2017-Jan-17 11:33N 51°38' W 127°51'2 4.2
2017-Jan-17 11:00N 51°36' W 127°48'2 5.2 130 / 4994.5 8.5 8.5
2017-Jan-17 10:33N 51°38' W 127°51'2 4.2
2017-Jan-17 10:00N 51°36' W 127°48'2 5.3 140 / 11995.5 9.0 9.1
2017-Jan-17 09:33N 51°38' W 127°51'2 4.3
2017-Jan-17 09:00N 51°36' W 127°48'2 5.3 140 / 17996.6 9.0 9.1
2017-Jan-17 08:33N 51°38' W 127°51'2 4.2
2017-Jan-17 08:00N 51°36' W 127°48'2 5.3 150 / 18996.6 9.2 9.3
2017-Jan-17 07:33N 51°38' W 127°51'2 4.2
2017-Jan-17 07:00N 51°36' W 127°48'2 5.3 160 / 14997.7 9.8 9.9
2017-Jan-17 06:33N 51°38' W 127°51'2 4.2
2017-Jan-17 06:00N 51°36' W 127°48'2 5.2 160 / 15997.6 10.410.4
2017-Jan-17 05:33N 51°38' W 127°51'2 4.2
2017-Jan-17 05:00N 51°36' W 127°48'2 5.3 170 / 12997.5 10.910.9
2017-Jan-17 04:33N 51°38' W 127°51'2 4.2
2017-Jan-17 04:00N 51°36' W 127°48'2 5.2 200 / 11997.6 9.1 9.2
2017-Jan-17 03:33N 51°38' W 127°51'2 4.2
2017-Jan-17 03:00N 51°36' W 127°48'2 5.2 200 / 14997.7 9.1 9.2
2017-Jan-17 02:33N 51°38' W 127°51'2 4.2
2017-Jan-17 02:00N 51°36' W 127°48'2 5.2 200 / 16997.9 9.3 9.4
2017-Jan-17 01:33N 51°38' W 127°51'2 4.2
2017-Jan-17 01:00N 51°36' W 127°48'2 5.3 200 / 11997.5 9.4 9.4
2017-Jan-17 00:33N 51°38' W 127°51'2 4.2
2017-Jan-17 00:00N 51°36' W 127°48'2 5.3 190 / 14998.1 8.8 8.9
2017-Jan-16 23:33N 51°38' W 127°51'2 4.2
2017-Jan-16 23:00N 51°36' W 127°48'2 5.3 180 / 12998.1 9.4 9.4
2017-Jan-16 22:33N 51°38' W 127°51'2 4.2
2017-Jan-16 22:00N 51°36' W 127°48'2 5.2 160 / 7999.7 9.1 9.2
2017-Jan-16 21:33N 51°38' W 127°51'2 4.2
2017-Jan-16 21:00N 51°36' W 127°48'2 5.2 170 / 111001.4 8.5 8.5
2017-Jan-16 20:33N 51°38' W 127°51'2 4.2
2017-Jan-16 20:00N 51°36' W 127°48'2 5.3 160 / 151003.5 7.8 7.9 7.4
2017-Jan-16 19:33N 51°38' W 127°51'2 4.2
2017-Jan-16 19:00N 51°36' W 127°48'2 5.2 180 / 121006.9 7.4 7.5 7.5
2017-Jan-16 18:33N 51°38' W 127°51'2 4.2
2017-Jan-16 18:00N 51°36' W 127°48'3 6.0 130 / 51009.2 6.9 6.9 7.7
2017-Jan-16 17:33N 51°38' W 127°51'3 4.5
2017-Jan-16 17:00N 51°36' W 127°54'818.5 180 / 41010.7 7.3 7.3 7.4
2017-Jan-16 16:33N 51°29' W 127°48'610.9
2017-Jan-16 16:00N 51°24' W 127°42'1414.1 070 / 111011.7 8.7 8.7 8.4
2017-Jan-16 15:00N 51°36' W 127°30'1 1.8 010 / 121013.4 9.9 9.9 8.6
2017-Jan-16 14:18N 51°36' W 127°32'1 3.9
2017-Jan-16 14:00N 51°36' W 127°30'0 0.0 010 / 111013.4 8.4 8.4 8.6
2017-Jan-16 13:00N 51°36' W 127°30'2 2.7 020 / 91013.9 10.110.1 8.6
2017-Jan-16 12:24N 51°37' W 127°32'2 4.1
2017-Jan-16 12:00N 51°36' W 127°30'0 0.0 060 / 161014.5 7.7 7.8 8.5
2017-Jan-16 11:00N 51°36' W 127°30'7 7.1 340 / 111015.6 6.8 6.9
2017-Jan-16 10:00N 51°30' W 127°36'7 8.0 010 / 111016.7 6.8 6.9 8.4
2017-Jan-16 09:03N 51°37' W 127°32'223.6
2017-Jan-16 09:00N 51°36' W 127°30'0 0.0 070 / 121017.2 6.6 6.7 8.6
2017-Jan-16 08:00N 51°36' W 127°30'7 7.1 360 / 151017.4 7.0 7.1 8.5
2017-Jan-16 07:00N 51°30' W 127°36'0 0.0 360 / 41018.0 6.8 6.9 8.2
2017-Jan-16 06:00N 51°30' W 127°36'7 7.1 120 / 101017.8 10.110.0 8.4
2017-Jan-16 05:00N 51°24' W 127°42'4 3.7 150 / 181017.9 11.010.9 8.3
2017-Jan-16 04:00N 51°24' W 127°48'0 0.0 140 / 151018.4 10.310.2
2017-Jan-16 03:00N 51°24' W 127°48'0 0.0 150 / 131018.9 9.9 9.8
2017-Jan-16 02:00N 51°24' W 127°48'0 0.0 210 / 61019.4 8.7 8.7
2017-Jan-16 01:00N 51°24' W 127°48'0 0.0 110 / 11019.1 7.7 7.8 8.1
2017-Jan-16 00:00N 51°24' W 127°48'0 0.0 150 / 31020.7 8.1 8.1 8.1
2017-Jan-15 23:00N 51°24' W 127°48'0 0.0 150 / 61021.3 8.6 8.6 8.2
2017-Jan-15 22:00N 51°24' W 127°48'714.3 110 / 61021.9 7.4 7.4 7.4
2017-Jan-15 21:32N 51°30' W 127°50'611.2
2017-Jan-15 21:00N 51°36' W 127°54'4 9.3 180 / 161021.7 7.3 7.3 7.7
2017-Jan-15 20:34N 51°39' W 127°58'4 7.1
2017-Jan-15 20:00N 51°42' W 127°54'510.7 160 / 141022.4 6.9 6.9 7.2
2017-Jan-15 19:34N 51°46' W 127°57'813.9
2017-Jan-15 19:00N 51°54' W 127°54'3 7.1 190 / 131022.2 6.9 7.0 7.0
2017-Jan-15 18:32N 51°57' W 127°57'3 6.5
2017-Jan-15 18:00N 52°00' W 127°54'10 9.5 150 / 31022.0 6.1 6.2 7.4
2017-Jan-15 17:00N 52°06' W 128°06'7 7.0 150 / 101021.5 6.8 6.9 7.6
2017-Jan-15 16:00N 52°12' W 128°12'9 9.5 200 / 121021.4 6.2 6.3 7.3
2017-Jan-15 15:00N 52°18' W 128°24'7 7.0 190 / 131021.0 5.7 5.8 7.1
2017-Jan-15 14:00N 52°24' W 128°30'1212.0 170 / 231020.7 5.8 5.9 7.2
2017-Jan-15 13:00N 52°36' W 128°30'7 7.0 180 / 211020.8 5.6 5.8 7.4
2017-Jan-15 12:00N 52°42' W 128°36'7 7.0 150 / 121020.7 5.2 5.3 7.8
2017-Jan-15 11:00N 52°48' W 128°30'6 6.0 340 / 81021.1 2.4 2.5 7.2
2017-Jan-15 10:00N 52°54' W 128°30'1312.5 180 / 51021.0 2.0 2.1 7.6
2017-Jan-15 09:00N 53°06' W 128°36'9 9.4 170 / 141020.6 3.0 3.1 8.0
2017-Jan-15 08:00N 53°12' W 128°48'7 7.0 180 / 201019.8 3.8 3.9 8.0
2017-Jan-15 07:00N 53°18' W 128°54'7 7.2 140 / 121019.3 5.3 5.3 7.6
2017-Jan-15 06:00N 53°18' W 129°06'9 9.3 170 / 151019.2 4.6 4.7 7.4
2017-Jan-15 05:00N 53°24' W 129°18'0 0.0 320 / 81019.4 1.4 1.5
2017-Jan-15 04:00N 53°24' W 129°18'0 0.0 300 / 61019.5 1.7 1.8
2017-Jan-15 03:00N 53°24' W 129°18'0 0.0 300 / 91019.5 2.2 2.3
2017-Jan-15 02:00N 53°24' W 129°18'0 0.0 010 / 11019.2 3.8 3.9
2017-Jan-15 00:00N 53°24' W 129°18'0 0.0 150 / 121019.1 4.8 4.8
2017-Jan-14 23:00N 53°24' W 129°18'0 0.0 160 / 91019.1 4.9 5.0
2017-Jan-14 22:00N 53°24' W 129°18'0 0.0 170 / 121019.0 4.9 5.0
2017-Jan-14 21:00N 53°24' W 129°18'0 0.0 160 / 111019.7 4.9 5.0
2017-Jan-14 20:00N 53°24' W 129°18'0 0.0 160 / 161020.1 5.3 5.4
2017-Jan-14 19:00N 53°24' W 129°18'0 0.0 170 / 131020.8 5.5 5.6
2017-Jan-14 18:00N 53°24' W 129°18'0 0.0 160 / 121021.1 5.1 5.2
2017-Jan-14 17:00N 53°24' W 129°18'0 0.0 160 / 131020.9 5.3 5.4
2017-Jan-14 16:00N 53°24' W 129°18'0 0.0 160 / 121020.9 5.5 5.5
2017-Jan-14 15:00N 53°24' W 129°18'0 0.0 170 / 121021.2 5.5 5.6
2017-Jan-14 14:00N 53°24' W 129°18'0 0.0 150 / 121021.5 5.4 5.5
2017-Jan-14 13:00N 53°24' W 129°18'0 0.0 170 / 101021.9 5.1 5.2
2017-Jan-14 12:00N 53°24' W 129°18'0 0.0 160 / 81022.2 5.1 5.2
2017-Jan-14 11:00N 53°24' W 129°18'0 0.0 170 / 101022.2 5.2 5.3
2017-Jan-14 10:00N 53°24' W 129°18'0 0.0 160 / 91022.4 4.9 4.9
2017-Jan-14 09:00N 53°24' W 129°18'0 0.0 160 / 71022.2 4.7 4.8
2017-Jan-14 08:00N 53°24' W 129°18'0 0.0 180 / 121022.6 4.8 4.9
2017-Jan-14 07:00N 53°24' W 129°18'0 0.0 160 / 111022.5 4.9 5.0
2017-Jan-14 06:00N 53°24' W 129°18'0 0.0 170 / 101022.8 4.9 4.9
2017-Jan-14 05:00N 53°24' W 129°18'0 0.0 170 / 91022.7 4.7 4.8 7.0
2017-Jan-14 04:00N 53°24' W 129°18'0 0.0 160 / 131022.7 4.5 4.5 7.1
2017-Jan-14 03:00N 53°24' W 129°18'0 0.0 170 / 161022.5 4.9 5.0 7.2
2017-Jan-14 02:00N 53°24' W 129°18'7 7.0 130 / 131022.3 4.9 4.9 7.1
2017-Jan-14 01:00N 53°30' W 129°12'6 6.0 190 / 121021.8 5.0 5.1 6.9
2017-Jan-14 00:00N 53°36' W 129°12'6 6.0 160 / 71022.2 4.0 4.1 7.2
2017-Jan-13 23:00N 53°30' W 129°12'7 7.0 200 / 101022.2 4.3 4.4 6.7
2017-Jan-13 22:00N 53°24' W 129°18'0 0.0 170 / 71022.6 4.3 4.4
2017-Jan-13 21:00N 53°24' W 129°18'0 0.0 160 / 91022.8 4.1 4.2
2017-Jan-13 20:00N 53°24' W 129°18'0 0.0 150 / 71023.1 3.5 3.6 7.3
2017-Jan-13 19:00N 53°24' W 129°18'4 3.6 1023.2 1.4 1.5 7.4
2017-Jan-13 18:00N 53°24' W 129°12'1212.0 010 / 21023.0 1.4 1.5 7.3
2017-Jan-13 17:00N 53°36' W 129°12'   310 / 21022.9 0.4 0.5 7.3

Dump ship's entire track history